createdAt,value
2018-07-02T00:00:16.283Z,67.90
2018-07-02T00:02:45.409Z,68.30
2018-07-02T00:05:14.572Z,68.30
2018-07-02T00:07:43.722Z,68.10
2018-07-02T00:10:12.879Z,69.00
2018-07-02T00:12:42.056Z,68.90
2018-07-02T00:15:11.337Z,69.30
2018-07-02T00:17:40.556Z,69.50
2018-07-02T00:20:09.727Z,70.50
2018-07-02T00:22:38.854Z,70.80
2018-07-02T00:25:08.015Z,71.80
2018-07-02T00:27:37.194Z,72.00
2018-07-02T00:30:06.353Z,72.20
2018-07-02T00:32:35.589Z,73.20
2018-07-02T00:35:05.737Z,72.10
2018-07-02T00:37:34.857Z,71.90
2018-07-02T00:40:03.965Z,72.30
2018-07-02T00:42:33.346Z,72.20
2018-07-02T00:45:02.589Z,72.30
2018-07-02T00:47:31.693Z,72.50
2018-07-02T00:50:00.840Z,73.10
2018-07-02T00:52:29.980Z,73.40
2018-07-02T00:54:59.118Z,72.90
2018-07-02T00:57:28.287Z,73.10
2018-07-02T01:00:10.883Z,72.70
2018-07-02T01:02:39.992Z,73.10
2018-07-02T01:05:09.120Z,72.90
2018-07-02T01:07:38.286Z,72.90
2018-07-02T01:10:07.479Z,73.20
2018-07-02T01:12:37.470Z,72.50
2018-07-02T01:15:06.705Z,72.00
2018-07-02T01:17:35.877Z,72.20
2018-07-02T01:20:05.660Z,71.90
2018-07-02T01:22:34.799Z,72.00
2018-07-02T01:25:04.009Z,72.60
2018-07-02T01:27:34.640Z,72.30
2018-07-02T01:30:04.646Z,72.50
2018-07-02T01:32:33.836Z,73.00
2018-07-02T01:35:03.049Z,72.80
2018-07-02T01:37:32.165Z,73.60
2018-07-02T01:40:01.277Z,73.50
2018-07-02T01:42:30.357Z,73.50
2018-07-02T01:44:59.624Z,73.60
2018-07-02T01:47:28.815Z,73.70
2018-07-02T01:49:58.049Z,73.90
2018-07-02T01:52:27.339Z,74.20
2018-07-02T01:54:56.511Z,73.40
2018-07-02T01:57:25.714Z,73.70
2018-07-02T01:59:54.848Z,73.90
2018-07-02T02:02:24.074Z,74.20
2018-07-02T02:04:53.198Z,74.10
2018-07-02T02:07:22.752Z,74.40
2018-07-02T02:09:52.020Z,74.50
2018-07-02T02:12:21.280Z,74.70
2018-07-02T02:14:50.403Z,74.30
2018-07-02T02:17:19.572Z,74.50
2018-07-02T02:19:48.681Z,74.00
2018-07-02T02:22:17.880Z,74.00
2018-07-02T02:24:46.991Z,74.90
2018-07-02T02:27:16.139Z,74.50
2018-07-02T02:29:45.376Z,75.20
2018-07-02T02:32:14.591Z,75.80
2018-07-02T02:34:43.741Z,76.20
2018-07-02T02:37:12.940Z,76.40
2018-07-02T02:39:42.060Z,76.50
2018-07-02T02:42:11.187Z,76.70
2018-07-02T02:44:40.366Z,77.20
2018-07-02T02:47:09.583Z,77.80
2018-07-02T02:49:38.670Z,78.40
2018-07-02T02:52:07.865Z,78.50
2018-07-02T02:54:37.019Z,79.40
2018-07-02T02:57:06.199Z,80.00
2018-07-02T02:59:35.422Z,80.20
2018-07-02T03:02:04.622Z,80.00
2018-07-02T03:04:33.825Z,80.80
2018-07-02T03:07:03.509Z,81.20
2018-07-02T03:09:33.627Z,81.50
2018-07-02T03:12:02.927Z,81.30
2018-07-02T03:14:32.244Z,81.30
2018-07-02T03:17:02.071Z,81.20
2018-07-02T03:19:31.187Z,81.90
2018-07-02T03:22:00.321Z,82.30
2018-07-02T03:24:29.524Z,82.40
2018-07-02T03:26:58.673Z,81.90
2018-07-02T03:29:27.844Z,82.30
2018-07-02T03:31:56.946Z,82.00
2018-07-02T03:34:26.128Z,82.00
2018-07-02T03:36:55.388Z,83.00
2018-07-02T03:39:24.535Z,83.20
2018-07-02T03:41:53.648Z,82.90
2018-07-02T03:44:23.055Z,82.50
2018-07-02T03:46:52.181Z,82.80
2018-07-02T03:49:21.352Z,82.90
2018-07-02T03:51:50.534Z,82.50
2018-07-02T03:54:19.682Z,81.90
2018-07-02T03:56:48.876Z,81.90
2018-07-02T03:59:18.005Z,81.00
2018-07-02T04:01:47.197Z,80.50
2018-07-02T04:04:16.499Z,80.10
2018-07-02T04:06:45.699Z,79.50
2018-07-02T04:09:14.881Z,79.70
2018-07-02T04:11:44.028Z,78.20
2018-07-02T04:14:13.275Z,78.20
2018-07-02T04:16:42.426Z,78.10
2018-07-02T04:19:13.494Z,77.60
2018-07-02T04:21:43.651Z,77.30
2018-07-02T04:24:12.849Z,75.70
2018-07-02T04:26:42.287Z,77.10
2018-07-02T04:29:11.578Z,77.10
2018-07-02T04:31:40.778Z,76.10
2018-07-02T04:34:10.023Z,77.20
2018-07-02T04:36:39.113Z,77.40
2018-07-02T04:39:08.917Z,77.10
2018-07-02T04:41:38.261Z,74.70
2018-07-02T04:44:08.253Z,73.40
2018-07-02T04:46:37.649Z,74.00
2018-07-02T04:49:06.884Z,73.50
2018-07-02T04:51:36.067Z,75.00
2018-07-02T04:54:06.437Z,74.10
2018-07-02T04:56:35.665Z,74.50
2018-07-02T04:59:04.942Z,73.60
2018-07-02T05:01:34.122Z,74.70
2018-07-02T05:04:03.491Z,73.90
2018-07-02T05:06:32.985Z,73.70
2018-07-02T05:09:02.196Z,72.40
2018-07-02T05:11:31.541Z,71.40
2018-07-02T05:14:00.840Z,71.90
2018-07-02T05:16:29.994Z,73.30
2018-07-02T05:18:59.225Z,73.40
2018-07-02T05:21:28.417Z,73.70
2018-07-02T05:23:57.608Z,73.20
2018-07-02T05:26:26.774Z,71.30
2018-07-02T05:28:55.928Z,71.10
2018-07-02T05:31:25.190Z,70.00
2018-07-02T05:33:54.383Z,71.10
2018-07-02T05:36:23.545Z,69.20
2018-07-02T05:38:52.699Z,68.20
2018-07-02T05:41:22.111Z,69.50
2018-07-02T05:43:51.311Z,68.80
2018-07-02T05:46:20.777Z,67.80
2018-07-02T05:48:50.080Z,67.60
2018-07-02T05:51:19.239Z,66.80
2018-07-02T05:53:48.452Z,68.20
2018-07-02T05:56:17.607Z,66.90
2018-07-02T05:58:47.759Z,69.10
2018-07-02T06:01:17.016Z,67.40
2018-07-02T06:03:46.442Z,66.80
2018-07-02T06:06:15.860Z,67.30
2018-07-02T06:08:45.165Z,68.00
2018-07-02T06:11:14.384Z,68.90
2018-07-02T06:13:43.889Z,67.00
2018-07-02T06:16:13.104Z,66.90
2018-07-02T06:18:42.439Z,67.50
2018-07-02T06:21:12.654Z,65.60
2018-07-02T06:23:41.939Z,65.00
2018-07-02T06:26:11.857Z,65.30
2018-07-02T06:28:40.969Z,64.60
2018-07-02T06:31:10.157Z,63.20
2018-07-02T06:33:39.336Z,63.10
2018-07-02T06:36:08.500Z,65.20
2018-07-02T06:38:37.664Z,63.00
2018-07-02T06:41:06.830Z,62.70
2018-07-02T06:43:36.079Z,63.50
2018-07-02T06:46:05.968Z,63.00
2018-07-02T06:48:35.396Z,64.50
2018-07-02T06:51:04.428Z,61.40
2018-07-02T06:53:33.641Z,63.20
2018-07-02T06:56:03.612Z,62.30
2018-07-02T06:58:32.739Z,62.10
2018-07-02T07:01:02.020Z,62.80
2018-07-02T07:03:31.298Z,59.70
2018-07-02T07:06:00.416Z,60.20
2018-07-02T07:08:29.774Z,59.00
2018-07-02T07:10:58.938Z,58.30
2018-07-02T07:13:28.176Z,58.20
2018-07-02T07:15:57.253Z,57.60
2018-07-02T07:18:26.424Z,57.40
2018-07-02T07:20:55.792Z,59.20
2018-07-02T07:23:25.012Z,57.80
2018-07-02T07:25:54.125Z,59.40
2018-07-02T07:28:23.507Z,59.10
2018-07-02T07:30:52.635Z,58.30
2018-07-02T07:33:21.890Z,56.60
2018-07-02T07:35:51.118Z,55.00
2018-07-02T07:38:20.285Z,54.40
2018-07-02T07:40:49.479Z,55.00
2018-07-02T07:43:19.434Z,55.00
2018-07-02T07:45:48.597Z,54.10
2018-07-02T07:48:17.788Z,55.70
2018-07-02T07:50:46.906Z,54.20
2018-07-02T07:53:16.100Z,54.00
2018-07-02T07:55:45.281Z,53.10
2018-07-02T07:58:14.383Z,53.40
2018-07-02T08:00:43.524Z,53.80
2018-07-02T08:03:12.718Z,53.70
2018-07-02T08:05:41.916Z,54.70
2018-07-02T08:08:11.216Z,54.90
2018-07-02T08:10:40.442Z,54.80
2018-07-02T08:13:10.232Z,55.30
2018-07-02T08:15:39.380Z,53.70
2018-07-02T08:18:08.546Z,55.00
2018-07-02T08:20:37.793Z,54.80
2018-07-02T08:23:07.209Z,52.70
2018-07-02T08:25:37.106Z,47.30
2018-07-02T08:28:06.456Z,48.10
2018-07-02T08:30:35.656Z,49.70
2018-07-02T08:33:04.908Z,48.20
2018-07-02T08:35:34.091Z,48.40
2018-07-02T08:38:03.376Z,48.20
2018-07-02T08:40:32.563Z,47.00
2018-07-02T08:43:01.792Z,50.20
2018-07-02T08:45:31.011Z,48.80
2018-07-02T08:48:00.213Z,46.40
2018-07-02T08:50:29.460Z,46.40
2018-07-02T08:52:58.625Z,48.90
2018-07-02T08:55:27.804Z,48.60
2018-07-02T08:57:57.036Z,46.40
2018-07-02T09:00:26.374Z,46.50
2018-07-02T09:02:55.565Z,48.40
2018-07-02T09:05:24.770Z,46.60
2018-07-02T09:07:53.936Z,44.70
2018-07-02T09:10:23.264Z,43.00
2018-07-02T09:12:52.382Z,43.50
2018-07-02T09:15:21.901Z,41.80
2018-07-02T09:17:51.126Z,42.10
2018-07-02T09:20:20.420Z,43.30
2018-07-02T09:22:49.595Z,45.90
2018-07-02T09:25:18.924Z,41.50
2018-07-02T09:27:48.116Z,40.00
2018-07-02T09:30:17.300Z,41.40
2018-07-02T09:32:46.466Z,39.00
2018-07-02T09:35:15.781Z,39.70
2018-07-02T09:40:13.966Z,43.30
2018-07-02T09:42:43.111Z,42.40
2018-07-02T09:45:12.967Z,39.00
2018-07-02T09:47:42.140Z,41.40
2018-07-02T09:50:11.454Z,39.00
2018-07-02T09:52:40.688Z,40.70
2018-07-02T09:55:09.895Z,39.50
2018-07-02T09:57:39.059Z,39.20
2018-07-02T10:00:08.289Z,40.00
2018-07-02T10:02:37.508Z,39.70
2018-07-02T10:05:06.857Z,38.90
2018-07-02T10:07:36.020Z,39.50
2018-07-02T10:10:05.305Z,37.70
2018-07-02T10:12:34.581Z,37.60
2018-07-02T10:15:04.106Z,36.90
2018-07-02T10:17:33.320Z,37.10
2018-07-02T10:20:02.509Z,35.80
2018-07-02T10:22:31.859Z,35.10
2018-07-02T10:25:01.886Z,36.70
2018-07-02T10:27:31.074Z,37.00
2018-07-02T10:30:00.269Z,37.80
2018-07-02T10:32:29.544Z,36.20
2018-07-02T10:34:58.708Z,35.40
2018-07-02T10:37:27.851Z,34.30
2018-07-02T10:39:57.091Z,33.80
2018-07-02T10:42:26.266Z,37.20
2018-07-02T10:44:55.449Z,33.60
2018-07-02T10:47:24.604Z,36.20
2018-07-02T10:49:54.008Z,33.50
2018-07-02T10:52:23.302Z,35.90
2018-07-02T10:54:52.566Z,35.80
2018-07-02T10:57:21.867Z,35.80
2018-07-02T10:59:51.727Z,35.00
2018-07-02T11:02:20.905Z,34.60
2018-07-02T11:04:50.046Z,36.10
2018-07-02T11:07:19.293Z,35.20
2018-07-02T11:09:48.433Z,36.10
2018-07-02T11:12:17.644Z,35.30
2018-07-02T11:14:46.906Z,34.70
2018-07-02T11:19:45.638Z,34.80
2018-07-02T11:22:14.819Z,38.20
2018-07-02T11:24:44.078Z,35.10
2018-07-02T11:27:13.297Z,35.80
2018-07-02T11:29:42.500Z,36.00
2018-07-02T11:32:11.960Z,33.60
2018-07-02T11:34:41.219Z,36.20
2018-07-02T11:37:10.377Z,36.20
2018-07-02T11:39:39.575Z,35.30
2018-07-02T11:42:08.800Z,34.50
2018-07-02T11:44:37.976Z,38.20
2018-07-02T11:49:35.959Z,35.70
2018-07-02T11:52:05.259Z,35.80
2018-07-02T11:54:34.630Z,34.20
2018-07-02T11:57:03.944Z,35.90
2018-07-02T11:59:33.240Z,35.90
2018-07-02T12:02:02.427Z,35.20
2018-07-02T12:04:31.675Z,36.50
2018-07-02T12:07:00.885Z,38.60
2018-07-02T12:09:30.118Z,37.70
2018-07-02T12:11:59.289Z,36.60
2018-07-02T12:14:28.483Z,37.80
2018-07-02T12:16:57.626Z,46.30
2018-07-02T12:19:26.729Z,47.20
2018-07-02T12:21:56.037Z,46.50
2018-07-02T12:24:25.234Z,47.60
2018-07-02T12:26:54.356Z,46.60
2018-07-02T12:29:23.641Z,47.40
2018-07-02T12:31:52.927Z,48.00
2018-07-02T12:34:22.372Z,46.70
2018-07-02T12:36:51.652Z,47.50
2018-07-02T12:39:21.472Z,46.60
2018-07-02T12:41:50.652Z,48.10
2018-07-02T12:44:19.865Z,44.90
2018-07-02T12:46:49.020Z,46.20
2018-07-02T12:49:18.283Z,46.30
2018-07-02T12:51:48.468Z,47.30
2018-07-02T12:54:17.771Z,46.10
2018-07-02T12:56:46.976Z,45.20
2018-07-02T12:59:16.147Z,45.00
2018-07-02T13:01:45.539Z,44.30
2018-07-02T13:04:14.679Z,46.20
2018-07-02T13:06:43.887Z,46.30
2018-07-02T13:09:13.255Z,44.50
2018-07-02T13:11:42.431Z,46.60
2018-07-02T13:14:12.164Z,44.90
2018-07-02T13:16:41.467Z,45.00
2018-07-02T13:19:10.694Z,45.30
2018-07-02T13:21:39.860Z,44.80
2018-07-02T13:24:09.072Z,44.50
2018-07-02T13:26:38.353Z,45.50
2018-07-02T13:29:07.657Z,45.10
2018-07-02T13:31:36.873Z,44.00
2018-07-02T13:34:06.212Z,46.00
2018-07-02T13:36:35.504Z,46.60
2018-07-02T13:39:06.253Z,44.10
2018-07-02T13:41:35.484Z,45.00
2018-07-02T13:44:06.354Z,46.00
2018-07-02T13:46:35.634Z,44.40
2018-07-02T13:49:04.903Z,45.40
2018-07-02T13:51:34.247Z,45.50
2018-07-02T13:54:03.744Z,47.30
2018-07-02T13:56:32.902Z,45.30
2018-07-02T13:59:02.102Z,46.10
2018-07-02T14:01:31.306Z,46.30
2018-07-02T14:04:00.475Z,45.70
2018-07-02T14:06:29.614Z,45.20
2018-07-02T14:08:58.735Z,45.90
2018-07-02T14:11:27.891Z,47.60
2018-07-02T14:13:57.044Z,47.10
2018-07-02T14:16:26.308Z,46.00
2018-07-02T14:18:55.688Z,44.80
2018-07-02T14:21:24.809Z,45.50
2018-07-02T14:23:54.077Z,45.80
2018-07-02T14:26:23.312Z,44.50
2018-07-02T14:28:52.605Z,44.30
2018-07-02T14:31:21.763Z,45.00
2018-07-02T14:33:50.938Z,45.00
2018-07-02T14:36:20.135Z,46.60
2018-07-02T14:38:49.481Z,45.60
2018-07-02T14:41:18.796Z,46.70
2018-07-02T14:43:48.066Z,46.50
2018-07-02T14:46:17.357Z,45.90
2018-07-02T14:48:46.536Z,45.80
2018-07-02T14:51:15.788Z,45.20
2018-07-02T14:53:44.888Z,45.80
2018-07-02T14:56:14.117Z,44.20
2018-07-02T14:58:43.222Z,44.50
2018-07-02T15:01:12.408Z,47.00
2018-07-02T15:03:41.590Z,46.90
2018-07-02T15:08:39.744Z,47.00
2018-07-02T15:11:08.927Z,46.30
2018-07-02T15:13:38.079Z,46.30
2018-07-02T15:16:07.341Z,44.90
2018-07-02T15:18:36.520Z,45.20
2018-07-02T15:21:05.734Z,46.00
2018-07-02T15:23:35.076Z,45.60
2018-07-02T15:28:32.940Z,47.20
2018-07-02T15:31:02.118Z,46.90
2018-07-02T15:33:31.329Z,48.60
2018-07-02T15:36:00.594Z,47.70
2018-07-02T15:38:29.725Z,47.80
2018-07-02T15:40:58.941Z,47.60
2018-07-02T15:43:28.194Z,48.00
2018-07-02T15:45:57.398Z,46.60
2018-07-02T15:48:26.594Z,47.70
2018-07-02T15:50:55.834Z,48.90
2018-07-02T15:53:25.000Z,47.40
2018-07-02T15:55:54.155Z,47.00
2018-07-02T15:58:23.476Z,47.60
2018-07-02T16:00:52.643Z,47.10
2018-07-02T16:03:22.174Z,48.80
2018-07-02T16:05:51.376Z,46.30
2018-07-02T16:08:20.640Z,46.40
2018-07-02T16:10:49.856Z,49.30
2018-07-02T16:13:19.855Z,47.10
2018-07-02T16:15:49.056Z,46.30
2018-07-02T16:18:18.312Z,50.00
2018-07-02T16:20:47.487Z,50.10
2018-07-02T16:23:16.784Z,50.10
2018-07-02T16:25:45.964Z,50.50
2018-07-02T16:28:15.185Z,49.00
2018-07-02T16:30:44.373Z,49.50
2018-07-02T16:33:20.374Z,49.80
2018-07-02T16:35:49.694Z,49.90
2018-07-02T16:38:18.816Z,49.70
2018-07-02T16:40:47.996Z,49.90
2018-07-02T16:43:17.164Z,50.90
2018-07-02T16:45:46.526Z,49.70
2018-07-02T16:48:15.756Z,50.10
2018-07-02T16:50:45.013Z,50.40
2018-07-02T16:53:14.267Z,51.20
2018-07-02T16:55:43.440Z,50.60
2018-07-02T16:58:12.635Z,50.30
2018-07-02T17:00:42.026Z,50.90
2018-07-02T17:03:11.179Z,48.20
2018-07-02T17:05:40.341Z,50.40
2018-07-02T17:08:09.586Z,49.80
2018-07-02T17:10:38.772Z,52.70
2018-07-02T17:13:07.947Z,51.90
2018-07-02T17:15:37.162Z,51.90
2018-07-02T17:18:06.402Z,51.30
2018-07-02T17:20:35.611Z,52.70
2018-07-02T17:23:04.796Z,51.50
2018-07-02T17:25:34.114Z,51.20
2018-07-02T17:30:31.988Z,51.80
2018-07-02T17:33:01.325Z,48.50
2018-07-02T17:35:30.538Z,50.20
2018-07-02T17:37:59.710Z,50.90
2018-07-02T17:40:28.844Z,49.50
2018-07-02T17:42:58.009Z,49.30
2018-07-02T17:45:27.145Z,51.40
2018-07-02T17:47:56.383Z,48.10
2018-07-02T17:50:25.690Z,50.40
2018-07-02T17:52:55.146Z,50.10
2018-07-02T17:55:24.318Z,51.00
2018-07-02T17:57:53.596Z,51.50
2018-07-02T18:00:22.866Z,51.90
2018-07-02T18:02:51.988Z,50.80
2018-07-02T18:05:21.372Z,51.90
2018-07-02T18:07:51.368Z,52.80
2018-07-02T18:10:20.568Z,52.50
2018-07-02T18:12:49.812Z,53.10
2018-07-02T18:15:18.898Z,51.30
2018-07-02T18:17:48.106Z,51.00
2018-07-02T18:20:17.322Z,52.80
2018-07-02T18:22:46.506Z,52.10
2018-07-02T18:25:15.704Z,52.40
2018-07-02T18:27:44.989Z,52.10
2018-07-02T18:30:14.246Z,53.00
2018-07-02T18:32:43.477Z,53.50
2018-07-02T18:35:12.663Z,54.10
2018-07-02T18:37:41.862Z,53.40
2018-07-02T18:40:10.999Z,53.80
2018-07-02T18:42:40.188Z,54.50
2018-07-02T18:45:09.349Z,54.20
2018-07-02T18:47:38.523Z,54.60
2018-07-02T18:50:07.678Z,56.00
2018-07-02T18:52:36.862Z,55.30
2018-07-02T18:55:06.148Z,56.00
2018-07-02T18:57:35.337Z,58.00
2018-07-02T19:00:05.118Z,58.30
2018-07-02T19:02:34.250Z,59.80
2018-07-02T19:05:04.038Z,61.80
2018-07-02T19:07:33.242Z,62.20
2018-07-02T19:10:02.394Z,62.10
2018-07-02T19:12:31.600Z,63.80
2018-07-02T19:15:00.826Z,67.80
2018-07-02T19:17:30.122Z,70.20
2018-07-02T19:19:59.306Z,71.90
2018-07-02T19:22:28.485Z,73.40
2018-07-02T19:24:57.684Z,75.40
2018-07-02T19:27:26.952Z,77.00
2018-07-02T19:29:56.831Z,78.40
2018-07-02T19:32:28.802Z,79.50
2018-07-02T19:34:58.580Z,80.10
2018-07-02T19:37:27.721Z,81.10
2018-07-02T19:39:56.946Z,82.60
2018-07-02T19:42:26.194Z,83.80
2018-07-02T19:44:55.323Z,84.90
2018-07-02T19:47:24.542Z,85.40
2018-07-02T19:49:53.686Z,86.40
2018-07-02T19:52:22.945Z,87.70
2018-07-02T19:54:52.127Z,87.60
2018-07-02T19:57:21.381Z,87.40
2018-07-02T20:02:19.327Z,88.40
2018-07-02T20:04:48.486Z,90.00
2018-07-02T20:07:17.721Z,90.70
2018-07-02T20:09:47.405Z,90.40
2018-07-02T20:12:16.525Z,90.10
2018-07-02T20:14:45.738Z,90.60
2018-07-02T20:17:14.959Z,90.90
2018-07-02T20:22:12.904Z,91.20
2018-07-02T20:24:42.044Z,91.10
2018-07-02T20:27:11.207Z,91.10
2018-07-02T20:29:40.409Z,91.70
2018-07-02T20:32:10.248Z,91.60
2018-07-02T20:34:39.493Z,91.60
2018-07-02T20:37:08.668Z,91.20
2018-07-02T20:39:37.828Z,91.00
2018-07-02T20:42:07.048Z,90.90
2018-07-02T20:44:36.227Z,91.10
2018-07-02T20:47:05.737Z,91.90
2018-07-02T20:49:34.895Z,91.80
2018-07-02T20:52:04.096Z,92.60
2018-07-02T20:54:33.373Z,90.70
2018-07-02T20:57:02.565Z,90.80
2018-07-02T20:59:31.808Z,91.60
2018-07-02T21:02:00.944Z,92.20
2018-07-02T21:04:30.152Z,92.90
2018-07-02T21:06:59.382Z,92.50
2018-07-02T21:09:28.523Z,92.50
2018-07-02T21:14:26.437Z,92.80
2018-07-02T21:16:55.648Z,93.20
2018-07-02T21:19:24.904Z,93.10
2018-07-02T21:21:54.119Z,93.20
2018-07-02T21:24:23.340Z,93.00
2018-07-02T21:26:52.611Z,93.10
2018-07-02T21:29:22.879Z,92.90
2018-07-02T21:31:52.085Z,92.80
2018-07-02T21:34:21.280Z,93.00
2018-07-02T21:36:50.429Z,92.80
2018-07-02T21:39:19.640Z,93.40
2018-07-02T21:41:48.872Z,93.90
2018-07-02T21:44:18.652Z,93.50
2018-07-02T21:46:47.919Z,93.10
2018-07-02T21:49:17.058Z,92.70
2018-07-02T21:51:46.208Z,92.90
2018-07-02T21:54:15.369Z,93.30
2018-07-02T21:56:44.575Z,93.30
2018-07-02T21:59:13.683Z,93.80
2018-07-02T22:01:42.805Z,94.20
2018-07-02T22:04:11.980Z,94.20
2018-07-02T22:06:41.111Z,94.00
2018-07-02T22:09:11.063Z,92.90
2018-07-02T22:11:40.271Z,93.70
2018-07-02T22:14:09.409Z,93.60
2018-07-02T22:16:38.592Z,94.30
2018-07-02T22:19:08.379Z,94.00
2018-07-02T22:21:37.499Z,93.90
2018-07-02T22:24:06.637Z,94.40
2018-07-02T22:26:37.091Z,94.20
2018-07-02T22:29:06.540Z,94.60
2018-07-02T22:31:35.705Z,94.90
2018-07-02T22:34:05.098Z,94.80
2018-07-02T22:36:35.123Z,95.10
2018-07-02T22:39:06.574Z,95.40
2018-07-02T22:41:35.761Z,96.10
2018-07-02T22:44:05.485Z,95.70
2018-07-02T22:46:34.637Z,95.60
2018-07-02T22:49:03.816Z,95.70
2018-07-02T22:51:32.996Z,96.70
2018-07-02T22:54:02.170Z,97.40
2018-07-02T22:56:31.627Z,97.50
2018-07-02T22:59:00.761Z,97.50
2018-07-02T23:01:29.952Z,96.70
2018-07-02T23:03:59.094Z,96.50
2018-07-02T23:06:28.304Z,96.80
2018-07-02T23:08:57.455Z,96.90
2018-07-02T23:11:26.684Z,96.80
2018-07-02T23:13:55.812Z,96.80
2018-07-02T23:16:25.081Z,96.50
2018-07-02T23:18:54.180Z,96.40
2018-07-02T23:21:23.439Z,96.50
2018-07-02T23:23:52.551Z,96.80
2018-07-02T23:26:21.835Z,96.80
2018-07-02T23:28:51.003Z,97.30
2018-07-02T23:31:20.129Z,98.20
2018-07-02T23:33:49.337Z,98.30
2018-07-02T23:36:19.081Z,98.40
2018-07-02T23:38:48.210Z,98.20
2018-07-02T23:41:17.345Z,97.80
2018-07-02T23:43:46.509Z,97.40
2018-07-02T23:46:15.802Z,97.90
2018-07-02T23:48:45.095Z,98.20
2018-07-02T23:51:14.283Z,98.70
2018-07-02T23:53:43.452Z,98.80
2018-07-02T23:56:12.738Z,98.70
2018-07-02T23:58:41.984Z,98.90
